sensor_id;sensor_type;location;lat;lon;timestamp;pressure;altitude;pressure_sealevel;temperature;humidity
25759;BME280;13604;52.496;13.456;2022-11-20T00:01:13;100862.06;;;-0.71;100.00
25759;BME280;13604;52.496;13.456;2022-11-20T00:03:39;100868.06;;;-0.75;100.00
25759;BME280;13604;52.496;13.456;2022-11-20T00:06:08;100861.22;;;-0.73;100.00
25759;BME280;13604;52.496;13.456;2022-11-20T00:08:34;100857.91;;;-0.78;100.00
25759;BME280;13604;52.496;13.456;2022-11-20T00:11:07;100862.13;;;-0.77;100.00
25759;BME280;13604;52.496;13.456;2022-11-20T00:13:33;100848.53;;;-0.79;100.00
25759;BME280;13604;52.496;13.456;2022-11-20T00:16:00;100863.03;;;-0.80;100.00
25759;BME280;13604;52.496;13.456;2022-11-20T00:18:26;100857.09;;;-0.83;100.00
25759;BME280;13604;52.496;13.456;2022-11-20T00:20:52;100860.50;;;-0.83;100.00
25759;BME280;13604;52.496;13.456;2022-11-20T00:23:17;100858.03;;;-0.89;100.00
25759;BME280;13604;52.496;13.456;2022-11-20T00:25:42;100860.63;;;-0.93;100.00
25759;BME280;13604;52.496;13.456;2022-11-20T00:28:08;100856.38;;;-0.94;100.00
25759;BME280;13604;52.496;13.456;2022-11-20T00:30:33;100856.38;;;-0.93;100.00
25759;BME280;13604;52.496;13.456;2022-11-20T00:32:58;100858.09;;;-0.95;100.00
25759;BME280;13604;52.496;13.456;2022-11-20T00:35:23;100854.69;;;-0.94;100.00
25759;BME280;13604;52.496;13.456;2022-11-20T00:37:49;100858.78;;;-0.82;100.00
25759;BME280;13604;52.496;13.456;2022-11-20T00:40:14;100863.97;;;-0.88;100.00
25759;BME280;13604;52.496;13.456;2022-11-20T00:42:39;100860.59;;;-0.89;100.00
25759;BME280;13604;52.496;13.456;2022-11-20T00:45:05;100858.84;;;-0.88;100.00
25759;BME280;13604;52.496;13.456;2022-11-20T00:47:30;100858.97;;;-0.97;100.00
25759;BME280;13604;52.496;13.456;2022-11-20T00:49:56;100856.41;;;-0.96;100.00
25759;BME280;13604;52.496;13.456;2022-11-20T00:52:21;100860.63;;;-0.92;100.00
25759;BME280;13604;52.496;13.456;2022-11-20T00:54:46;100860.63;;;-0.92;100.00
25759;BME280;13604;52.496;13.456;2022-11-20T00:57:11;100856.41;;;-0.96;100.00
25759;BME280;13604;52.496;13.456;2022-11-20T00:59:37;100852.16;;;-0.98;100.00
25759;BME280;13604;52.496;13.456;2022-11-20T01:02:02;100870.13;;;-1.03;100.00
25759;BME280;13604;52.496;13.456;2022-11-20T01:04:27;100864.19;;;-1.05;100.00
25759;BME280;13604;52.496;13.456;2022-11-20T01:06:53;100859.97;;;-1.09;100.00
25759;BME280;13604;52.496;13.456;2022-11-20T01:09:18;100858.28;;;-1.10;100.00
25759;BME280;13604;52.496;13.456;2022-11-20T01:11:44;100862.47;;;-1.04;100.00
25759;BME280;13604;52.496;13.456;2022-11-20T01:14:14;100860.69;;;-0.99;100.00
25759;BME280;13604;52.496;13.456;2022-11-20T01:16:50;100854.78;;;-1.00;100.00
25759;BME280;13604;52.496;13.456;2022-11-20T01:19:21;100858.13;;;-0.99;100.00
25759;BME280;13604;52.496;13.456;2022-11-20T01:21:50;100853.00;;;-0.96;100.00
25759;BME280;13604;52.496;13.456;2022-11-20T01:24:17;100854.72;;;-0.97;100.00
25759;BME280;13604;52.496;13.456;2022-11-20T01:26:44;100852.22;;;-1.01;100.00
25759;BME280;13604;52.496;13.456;2022-11-20T01:29:15;100848.88;;;-1.08;100.00
25759;BME280;13604;52.496;13.456;2022-11-20T01:31:41;100845.44;;;-1.05;100.00
25759;BME280;13604;52.496;13.456;2022-11-20T01:34:09;100838.63;;;-1.05;100.00
25759;BME280;13604;52.496;13.456;2022-11-20T01:36:36;100848.75;;;-0.99;100.00
25759;BME280;13604;52.496;13.456;2022-11-20T01:39:10;100850.44;;;-0.95;100.00
25759;BME280;13604;52.496;13.456;2022-11-20T01:41:36;100841.91;;;-0.95;100.00
25759;BME280;13604;52.496;13.456;2022-11-20T01:44:39;100838.50;;;-0.96;100.00
25759;BME280;13604;52.496;13.456;2022-11-20T01:47:08;100842.78;;;-0.98;100.00
25759;BME280;13604;52.496;13.456;2022-11-20T01:49:38;100849.56;;;-0.94;100.00
25759;BME280;13604;52.496;13.456;2022-11-20T01:52:07;100852.13;;;-0.94;100.00
25759;BME280;13604;52.496;13.456;2022-11-20T01:54:40;100839.38;;;-0.95;100.00
25759;BME280;13604;52.496;13.456;2022-11-20T01:57:09;100839.34;;;-0.94;100.00
25759;BME280;13604;52.496;13.456;2022-11-20T01:59:39;100841.03;;;-0.93;100.00
25759;BME280;13604;52.496;13.456;2022-11-20T02:02:06;100832.56;;;-0.96;100.00
25759;BME280;13604;52.496;13.456;2022-11-20T02:04:31;100835.94;;;-0.94;100.00
25759;BME280;13604;52.496;13.456;2022-11-20T02:07:00;100838.44;;;-0.90;100.00
25759;BME280;13604;52.496;13.456;2022-11-20T02:09:26;100833.50;;;-1.02;100.00
25759;BME280;13604;52.496;13.456;2022-11-20T02:11:52;100827.47;;;-0.99;100.00
25759;BME280;13604;52.496;13.456;2022-11-20T02:14:18;100836.00;;;-0.99;100.00
25759;BME280;13604;52.496;13.456;2022-11-20T02:16:46;100834.31;;;-1.00;100.00
25759;BME280;13604;52.496;13.456;2022-11-20T02:19:24;100819.88;;;-1.02;100.00
25759;BME280;13604;52.496;13.456;2022-11-20T02:21:59;100824.91;;;-0.99;100.00
25759;BME280;13604;52.496;13.456;2022-11-20T02:24:27;100824.91;;;-0.99;100.00
25759;BME280;13604;52.496;13.456;2022-11-20T02:27:14;100822.44;;;-1.05;100.00
25759;BME280;13604;52.496;13.456;2022-11-20T02:30:03;100824.16;;;-1.06;100.00
25759;BME280;13604;52.496;13.456;2022-11-20T02:32:34;100814.81;;;-1.08;100.00
25759;BME280;13604;52.496;13.456;2022-11-20T02:37:54;100815.75;;;-1.14;100.00
25759;BME280;13604;52.496;13.456;2022-11-20T02:40:20;100809.78;;;-1.15;100.00
25759;BME280;13604;52.496;13.456;2022-11-20T02:42:45;100815.78;;;-1.17;100.00
25759;BME280;13604;52.496;13.456;2022-11-20T02:45:11;100812.38;;;-1.18;100.00
25759;BME280;13604;52.496;13.456;2022-11-20T02:47:36;100817.50;;;-1.19;100.00
25759;BME280;13604;52.496;13.456;2022-11-20T02:50:02;100816.53;;;-1.09;100.00
25759;BME280;13604;52.496;13.456;2022-11-20T02:52:28;100810.66;;;-1.14;100.00
25759;BME280;13604;52.496;13.456;2022-11-20T02:54:53;100817.47;;;-1.16;100.00
25759;BME280;13604;52.496;13.456;2022-11-20T02:57:18;100816.59;;;-1.12;100.00
25759;BME280;13604;52.496;13.456;2022-11-20T02:59:44;100815.72;;;-1.11;100.00
25759;BME280;13604;52.496;13.456;2022-11-20T03:02:09;100815.72;;;-1.11;100.00
25759;BME280;13604;52.496;13.456;2022-11-20T03:04:34;100812.41;;;-1.19;100.00
25759;BME280;13604;52.496;13.456;2022-11-20T03:06:59;100809.00;;;-1.21;100.00
25759;BME280;13604;52.496;13.456;2022-11-20T03:09:25;100807.34;;;-1.22;100.00
25759;BME280;13604;52.496;13.456;2022-11-20T03:11:50;100806.50;;;-1.24;100.00
25759;BME280;13604;52.496;13.456;2022-11-20T03:14:16;100803.13;;;-1.26;100.00
25759;BME280;13604;52.496;13.456;2022-11-20T03:16:41;100801.53;;;-1.35;100.00
25759;BME280;13604;52.496;13.456;2022-11-20T03:19:06;100798.06;;;-1.32;100.00
25759;BME280;13604;52.496;13.456;2022-11-20T03:21:35;100793.78;;;-1.30;100.00
25759;BME280;13604;52.496;13.456;2022-11-20T03:24:01;100791.31;;;-1.35;100.00
25759;BME280;13604;52.496;13.456;2022-11-20T03:26:27;100798.91;;;-1.30;100.00
25759;BME280;13604;52.496;13.456;2022-11-20T03:28:55;100791.25;;;-1.30;100.00
25759;BME280;13604;52.496;13.456;2022-11-20T03:31:23;100794.66;;;-1.31;100.00
25759;BME280;13604;52.496;13.456;2022-11-20T03:33:49;100796.41;;;-1.33;100.00
25759;BME280;13604;52.496;13.456;2022-11-20T03:36:16;100795.59;;;-1.37;100.00
25759;BME280;13604;52.496;13.456;2022-11-20T03:38:43;100795.63;;;-1.40;100.00
25759;BME280;13604;52.496;13.456;2022-11-20T03:41:14;100789.66;;;-1.39;100.00
25759;BME280;13604;52.496;13.456;2022-11-20T03:43:39;100792.09;;;-1.30;100.00
25759;BME280;13604;52.496;13.456;2022-11-20T03:46:06;100794.63;;;-1.28;100.00
25759;BME280;13604;52.496;13.456;2022-11-20T03:48:31;100791.28;;;-1.33;100.00
25759;BME280;13604;52.496;13.456;2022-11-20T03:51:13;100788.69;;;-1.32;100.00
25759;BME280;13604;52.496;13.456;2022-11-20T03:53:40;100790.38;;;-1.28;100.00
25759;BME280;13604;52.496;13.456;2022-11-20T03:56:07;100787.81;;;-1.28;100.00
25759;BME280;13604;52.496;13.456;2022-11-20T03:58:34;100784.44;;;-1.30;100.00
25759;BME280;13604;52.496;13.456;2022-11-20T04:01:06;100788.66;;;-1.27;100.00
25759;BME280;13604;52.496;13.456;2022-11-20T04:03:31;100788.69;;;-1.30;100.00
25759;BME280;13604;52.496;13.456;2022-11-20T04:06:14;100786.13;;;-1.29;100.00
25759;BME280;13604;52.496;13.456;2022-11-20T04:08:40;100786.13;;;-1.30;100.00
25759;BME280;13604;52.496;13.456;2022-11-20T04:11:10;100788.63;;;-1.24;100.00
25759;BME280;13604;52.496;13.456;2022-11-20T04:13:36;100786.94;;;-1.27;100.00
25759;BME280;13604;52.496;13.456;2022-11-20T04:16:01;100777.56;;;-1.26;100.00
25759;BME280;13604;52.496;13.456;2022-11-20T04:18:27;100783.59;;;-1.32;100.00
25759;BME280;13604;52.496;13.456;2022-11-20T04:20:52;100784.53;;;-1.37;100.00
25759;BME280;13604;52.496;13.456;2022-11-20T04:23:17;100783.69;;;-1.41;100.00
25759;BME280;13604;52.496;13.456;2022-11-20T04:25:43;100794.00;;;-1.47;100.00
25759;BME280;13604;52.496;13.456;2022-11-20T04:28:09;100791.56;;;-1.58;100.00
25759;BME280;13604;52.496;13.456;2022-11-20T04:30:34;100796.69;;;-1.61;100.00
25759;BME280;13604;52.496;13.456;2022-11-20T04:32:59;100784.75;;;-1.57;100.00
25759;BME280;13604;52.496;13.456;2022-11-20T04:35:25;100783.09;;;-1.61;100.00
25759;BME280;13604;52.496;13.456;2022-11-20T04:37:51;100798.38;;;-1.57;100.00
25759;BME280;13604;52.496;13.456;2022-11-20T04:40:17;100791.56;;;-1.56;100.00
25759;BME280;13604;52.496;13.456;2022-11-20T04:42:42;100789.88;;;-1.57;100.00
25759;BME280;13604;52.496;13.456;2022-11-20T04:45:08;100778.72;;;-1.50;100.00
25759;BME280;13604;52.496;13.456;2022-11-20T04:47:33;100765.09;;;-1.52;100.00
25759;BME280;13604;52.496;13.456;2022-11-20T04:49:58;100775.38;;;-1.57;100.00
25759;BME280;13604;52.496;13.456;2022-11-20T04:52:24;100771.03;;;-1.50;100.00
25759;BME280;13604;52.496;13.456;2022-11-20T04:54:49;100774.47;;;-1.53;100.00
25759;BME280;13604;52.496;13.456;2022-11-20T04:57:17;100774.47;;;-1.51;100.00
25759;BME280;13604;52.496;13.456;2022-11-20T04:59:43;100772.72;;;-1.46;100.00
25759;BME280;13604;52.496;13.456;2022-11-20T05:02:08;100755.72;;;-1.50;100.00
25759;BME280;13604;52.496;13.456;2022-11-20T05:04:33;100761.66;;;-1.47;100.00
25759;BME280;13604;52.496;13.456;2022-11-20T05:06:58;100745.63;;;-1.61;100.00
25759;BME280;13604;52.496;13.456;2022-11-20T05:09:24;100759.13;;;-1.48;100.00
25759;BME280;13604;52.496;13.456;2022-11-20T05:11:49;100752.28;;;-1.46;100.00
25759;BME280;13604;52.496;13.456;2022-11-20T05:14:14;100750.66;;;-1.55;100.00
25759;BME280;13604;52.496;13.456;2022-11-20T05:16:40;100752.34;;;-1.54;100.00
25759;BME280;13604;52.496;13.456;2022-11-20T05:19:05;100747.19;;;-1.48;100.00
25759;BME280;13604;52.496;13.456;2022-11-20T05:21:31;100746.34;;;-1.48;100.00
25759;BME280;13604;52.496;13.456;2022-11-20T05:23:57;100740.41;;;-1.50;100.00
25759;BME280;13604;52.496;13.456;2022-11-20T05:26:22;100742.91;;;-1.45;100.00
25759;BME280;13604;52.496;13.456;2022-11-20T05:28:48;100742.91;;;-1.44;100.00
25759;BME280;13604;52.496;13.456;2022-11-20T05:31:16;100742.81;;;-1.39;100.00
25759;BME280;13604;52.496;13.456;2022-11-20T05:33:43;100749.63;;;-1.38;100.00
25759;BME280;13604;52.496;13.456;2022-11-20T05:36:10;100747.09;;;-1.40;100.00
25759;BME280;13604;52.496;13.456;2022-11-20T05:38:36;100747.09;;;-1.41;100.00
25759;BME280;13604;52.496;13.456;2022-11-20T05:41:13;100746.22;;;-1.37;100.00
25759;BME280;13604;52.496;13.456;2022-11-20T05:43:42;100744.53;;;-1.38;100.00
25759;BME280;13604;52.496;13.456;2022-11-20T05:46:09;100746.22;;;-1.37;100.00
25759;BME280;13604;52.496;13.456;2022-11-20T05:48:35;100741.06;;;-1.33;100.00
25759;BME280;13604;52.496;13.456;2022-11-20T05:51:03;100740.22;;;-1.35;100.00
25759;BME280;13604;52.496;13.456;2022-11-20T05:53:28;100740.16;;;-1.30;100.00
25759;BME280;13604;52.496;13.456;2022-11-20T05:55:58;100735.88;;;-1.28;100.00
25759;BME280;13604;52.496;13.456;2022-11-20T05:58:24;100738.47;;;-1.31;100.00
25759;BME280;13604;52.496;13.456;2022-11-20T06:00:49;100739.25;;;-1.26;100.00
25759;BME280;13604;52.496;13.456;2022-11-20T06:03:15;100735.06;;;-1.32;100.00
25759;BME280;13604;52.496;13.456;2022-11-20T06:05:40;100733.41;;;-1.33;100.00
25759;BME280;13604;52.496;13.456;2022-11-20T06:08:05;100732.44;;;-1.26;100.00
25759;BME280;13604;52.496;13.456;2022-11-20T06:10:31;100726.47;;;-1.25;100.00
25759;BME280;13604;52.496;13.456;2022-11-20T06:13:16;100730.75;;;-1.27;100.00
25759;BME280;13604;52.496;13.456;2022-11-20T06:15:52;100738.38;;;-1.22;100.00
25759;BME280;13604;52.496;13.456;2022-11-20T06:18:17;100728.19;;;-1.27;100.00
25759;BME280;13604;52.496;13.456;2022-11-20T06:20:43;100718.84;;;-1.29;100.00
25759;BME280;13604;52.496;13.456;2022-11-20T06:23:08;100730.72;;;-1.25;100.00
25759;BME280;13604;52.496;13.456;2022-11-20T06:25:37;100729.91;;;-1.27;100.00
25759;BME280;13604;52.496;13.456;2022-11-20T06:28:03;100724.81;;;-1.29;100.00
25759;BME280;13604;52.496;13.456;2022-11-20T06:30:28;100730.69;;;-1.22;100.00
25759;BME280;13604;52.496;13.456;2022-11-20T06:32:54;100732.44;;;-1.26;100.00
25759;BME280;13604;52.496;13.456;2022-11-20T06:35:19;100726.59;;;-1.34;100.00
25759;BME280;13604;52.496;13.456;2022-11-20T06:37:44;100737.59;;;-1.30;100.00
25759;BME280;13604;52.496;13.456;2022-11-20T06:40:10;100727.38;;;-1.30;100.00
25759;BME280;13604;52.496;13.456;2022-11-20T06:42:35;100733.31;;;-1.27;100.00
25759;BME280;13604;52.496;13.456;2022-11-20T06:45:00;100735.03;;;-1.30;100.00
25759;BME280;13604;52.496;13.456;2022-11-20T06:47:26;100724.91;;;-1.35;100.00
25759;BME280;13604;52.496;13.456;2022-11-20T06:49:51;100728.31;;;-1.34;100.00
25759;BME280;13604;52.496;13.456;2022-11-20T06:52:16;100727.38;;;-1.30;100.00
25759;BME280;13604;52.496;13.456;2022-11-20T06:54:42;100731.69;;;-1.34;100.00
25759;BME280;13604;52.496;13.456;2022-11-20T06:57:07;100722.34;;;-1.35;100.00
25759;BME280;13604;52.496;13.456;2022-11-20T06:59:32;100723.22;;;-1.36;100.00
25759;BME280;13604;52.496;13.456;2022-11-20T07:01:58;100721.50;;;-1.34;100.00
25759;BME280;13604;52.496;13.456;2022-11-20T07:04:23;100710.34;;;-1.31;100.00
25759;BME280;13604;52.496;13.456;2022-11-20T07:06:48;100722.28;;;-1.30;100.00
25759;BME280;13604;52.496;13.456;2022-11-20T07:09:14;100728.22;;;-1.28;100.00
25759;BME280;13604;52.496;13.456;2022-11-20T07:11:39;100717.09;;;-1.23;100.00
25759;BME280;13604;52.496;13.456;2022-11-20T07:14:04;100717.09;;;-1.23;100.00
25759;BME280;13604;52.496;13.456;2022-11-20T07:16:30;100715.38;;;-1.22;100.00
25759;BME280;13604;52.496;13.456;2022-11-20T07:18:55;100716.97;;;-1.15;100.00
25759;BME280;13604;52.496;13.456;2022-11-20T07:21:20;100723.75;;;-1.13;100.00
25759;BME280;13604;52.496;13.456;2022-11-20T07:23:46;100717.78;;;-1.12;100.00
25759;BME280;13604;52.496;13.456;2022-11-20T07:26:11;100720.34;;;-1.13;100.00
25759;BME280;13604;52.496;13.456;2022-11-20T07:28:37;100723.66;;;-1.06;100.00
25759;BME280;13604;52.496;13.456;2022-11-20T07:31:03;100723.75;;;-1.11;100.00
25759;BME280;13604;52.496;13.456;2022-11-20T07:33:29;100719.38;;;-1.04;100.00
25759;BME280;13604;52.496;13.456;2022-11-20T07:35:55;100724.50;;;-1.06;100.00
25759;BME280;13604;52.496;13.456;2022-11-20T07:38:20;100723.66;;;-1.06;100.00
25759;BME280;13604;52.496;13.456;2022-11-20T07:40:46;100729.63;;;-1.06;100.00
25759;BME280;13604;52.496;13.456;2022-11-20T07:43:11;100724.47;;;-1.04;100.00
25759;BME280;13604;52.496;13.456;2022-11-20T07:45:36;100715.00;;;-0.98;100.00
25759;BME280;13604;52.496;13.456;2022-11-20T07:48:02;100718.50;;;-1.02;100.00
25759;BME280;13604;52.496;13.456;2022-11-20T07:50:27;100721.06;;;-1.03;100.00
25759;BME280;13604;52.496;13.456;2022-11-20T07:53:00;100714.22;;;-1.01;100.00
25759;BME280;13604;52.496;13.456;2022-11-20T07:55:25;100715.84;;;-0.97;100.00
25759;BME280;13604;52.496;13.456;2022-11-20T07:57:54;100720.81;;;-0.88;100.00
25759;BME280;13604;52.496;13.456;2022-11-20T08:00:20;100718.50;;;-1.02;100.00
25759;BME280;13604;52.496;13.456;2022-11-20T08:02:46;100705.72;;;-1.03;100.00
25759;BME280;13604;52.496;13.456;2022-11-20T08:05:11;100713.38;;;-1.00;100.00
25759;BME280;13604;52.496;13.456;2022-11-20T08:07:37;100708.19;;;-0.97;100.00
25759;BME280;13604;52.496;13.456;2022-11-20T08:10:03;100708.00;;;-0.85;100.00
25759;BME280;13604;52.496;13.456;2022-11-20T08:12:28;100708.13;;;-0.91;100.00
25759;BME280;13604;52.496;13.456;2022-11-20T08:15:12;100702.16;;;-0.92;100.00
25759;BME280;13604;52.496;13.456;2022-11-20T08:17:37;100700.38;;;-0.88;100.00
25759;BME280;13604;52.496;13.456;2022-11-20T08:20:02;100702.66;;;-0.70;100.00
25759;BME280;13604;52.496;13.456;2022-11-20T08:22:28;100702.81;;;-0.78;100.00
25759;BME280;13604;52.496;13.456;2022-11-20T08:24:53;100699.50;;;-0.86;100.00
25759;BME280;13604;52.496;13.456;2022-11-20T08:27:19;100701.84;;;-0.72;100.00
25759;BME280;13604;52.496;13.456;2022-11-20T08:29:44;100702.63;;;-0.67;100.00
25759;BME280;13604;52.496;13.456;2022-11-20T08:32:09;100696.56;;;-0.61;100.00
25759;BME280;13604;52.496;13.456;2022-11-20T08:34:35;100689.69;;;-0.58;100.00
25759;BME280;13604;52.496;13.456;2022-11-20T08:37:01;100697.19;;;-0.47;100.00
25759;BME280;13604;52.496;13.456;2022-11-20T08:39:27;100692.13;;;-0.52;100.00
25759;BME280;13604;52.496;13.456;2022-11-20T08:41:52;100686.16;;;-0.51;100.00
25759;BME280;13604;52.496;13.456;2022-11-20T08:44:17;100695.06;;;-0.75;100.00
25759;BME280;13604;52.496;13.456;2022-11-20T08:46:42;100700.16;;;-0.73;100.00
25759;BME280;13604;52.496;13.456;2022-11-20T08:49:10;100690.81;;;-0.76;100.00
25759;BME280;13604;52.496;13.456;2022-11-20T08:51:36;100689.97;;;-0.76;100.00
25759;BME280;13604;52.496;13.456;2022-11-20T08:54:02;100681.34;;;-0.69;100.00
25759;BME280;13604;52.496;13.456;2022-11-20T08:56:28;100686.28;;;-0.58;100.00
25759;BME280;13604;52.496;13.456;2022-11-20T08:58:53;100684.50;;;-0.55;100.00
25759;BME280;13604;52.496;13.456;2022-11-20T09:01:19;100685.13;;;-0.41;100.00
25759;BME280;13604;52.496;13.456;2022-11-20T09:03:45;100690.94;;;-0.32;100.00
25759;BME280;13604;52.496;13.456;2022-11-20T09:06:10;100685.88;;;-0.34;100.00
25759;BME280;13604;52.496;13.456;2022-11-20T09:08:36;100686.81;;;-0.40;100.00
25759;BME280;13604;52.496;13.456;2022-11-20T09:11:02;100689.31;;;-0.37;100.00
25759;BME280;13604;52.496;13.456;2022-11-20T09:13:28;100696.84;;;-0.27;100.00
25759;BME280;13604;52.496;13.456;2022-11-20T09:16:04;100691.94;;;-0.40;100.00
25759;BME280;13604;52.496;13.456;2022-11-20T09:18:30;100696.97;;;-0.33;100.00
25759;BME280;13604;52.496;13.456;2022-11-20T09:21:02;100695.06;;;-0.24;100.00
25759;BME280;13604;52.496;13.456;2022-11-20T09:23:31;100698.38;;;-0.19;100.00
25759;BME280;13604;52.496;13.456;2022-11-20T09:26:01;100699.91;;;-0.09;100.00
25759;BME280;13604;52.496;13.456;2022-11-20T09:28:27;100700.91;;;-0.16;100.00
25759;BME280;13604;52.496;13.456;2022-11-20T09:30:52;100699.28;;;-0.21;100.00
25759;BME280;13604;52.496;13.456;2022-11-20T09:33:17;100701.84;;;-0.21;100.00
25759;BME280;13604;52.496;13.456;2022-11-20T09:35:43;100701.09;;;-0.28;100.00
25759;BME280;13604;52.496;13.456;2022-11-20T09:38:09;100698.44;;;-0.22;100.00
25759;BME280;13604;52.496;13.456;2022-11-20T09:40:38;100699.34;;;-0.24;100.00
25759;BME280;13604;52.496;13.456;2022-11-20T09:43:27;100699.41;;;-0.27;100.00
25759;BME280;13604;52.496;13.456;2022-11-20T09:46:29;100698.50;;;-0.25;100.00
25759;BME280;13604;52.496;13.456;2022-11-20T09:49:22;100690.59;;;-0.11;100.00
25759;BME280;13604;52.496;13.456;2022-11-20T09:52:04;100684.66;;;-0.15;100.00
25759;BME280;13604;52.496;13.456;2022-11-20T09:54:38;100682.09;;;-0.13;100.00
25759;BME280;13604;52.496;13.456;2022-11-20T09:57:18;100686.16;;;-0.03;100.00
25759;BME280;13604;52.496;13.456;2022-11-20T09:59:50;100686.06;;;0.02;100.00
25759;BME280;13604;52.496;13.456;2022-11-20T10:04:57;100682.44;;;0.12;100.00
25759;BME280;13604;52.496;13.456;2022-11-20T10:07:32;100679.16;;;0.05;100.00
25759;BME280;13604;52.496;13.456;2022-11-20T10:10:02;100678.34;;;0.03;100.00
25759;BME280;13604;52.496;13.456;2022-11-20T10:15:26;100677.50;;;0.03;100.00
25759;BME280;13604;52.496;13.456;2022-11-20T10:18:10;100677.72;;;-0.08;100.00
25759;BME280;13604;52.496;13.456;2022-11-20T10:21:03;100670.28;;;-0.22;100.00
25759;BME280;13604;52.496;13.456;2022-11-20T10:23:56;100671.22;;;-0.26;100.00
25759;BME280;13604;52.496;13.456;2022-11-20T10:29:08;100665.13;;;-0.19;100.00
25759;BME280;13604;52.496;13.456;2022-11-20T10:31:36;100661.91;;;-0.30;100.00
25759;BME280;13604;52.496;13.456;2022-11-20T10:34:18;100674.59;;;-0.22;100.00
25759;BME280;13604;52.496;13.456;2022-11-20T10:36:50;100663.44;;;-0.21;100.00
25759;BME280;13604;52.496;13.456;2022-11-20T10:39:35;100660.03;;;-0.22;100.00
25759;BME280;13604;52.496;13.456;2022-11-20T10:42:02;100647.88;;;-0.09;100.00
25759;BME280;13604;52.496;13.456;2022-11-20T10:44:29;100651.22;;;-0.06;100.00
25759;BME280;13604;52.496;13.456;2022-11-20T10:47:17;100648.53;;;0.00;100.00
25759;BME280;13604;52.496;13.456;2022-11-20T10:49:45;100647.66;;;0.02;100.00
25759;BME280;13604;52.496;13.456;2022-11-20T10:52:21;100642.84;;;0.29;100.00
25759;BME280;13604;52.496;13.456;2022-11-20T10:57:52;100635.81;;;0.39;100.00
25759;BME280;13604;52.496;13.456;2022-11-20T11:00:20;100640.41;;;0.23;100.00
25759;BME280;13604;52.496;13.456;2022-11-20T11:02:50;100644.28;;;0.43;100.00
25759;BME280;13604;52.496;13.456;2022-11-20T11:05:39;100639.03;;;0.86;100.00
25759;BME280;13604;52.496;13.456;2022-11-20T11:08:12;100643.38;;;1.86;100.00
25759;BME280;13604;52.496;13.456;2022-11-20T11:11:00;100633.38;;;2.06;100.00
25759;BME280;13604;52.496;13.456;2022-11-20T11:13:29;100641.31;;;1.66;100.00
25759;BME280;13604;52.496;13.456;2022-11-20T11:15:56;100644.28;;;1.83;100.00
25759;BME280;13604;52.496;13.456;2022-11-20T11:18:26;100640.69;;;1.89;100.00
25759;BME280;13604;52.496;13.456;2022-11-20T11:20:53;100632.00;;;1.63;100.00
25759;BME280;13604;52.496;13.456;2022-11-20T11:23:30;100632.28;;;1.53;100.00
25759;BME280;13604;52.496;13.456;2022-11-20T11:25:58;100631.19;;;1.92;100.00
25759;BME280;13604;52.496;13.456;2022-11-20T11:28:24;100635.78;;;1.81;100.00
25759;BME280;13604;52.496;13.456;2022-11-20T11:30:51;100643.59;;;1.44;100.00
25759;BME280;13604;52.496;13.456;2022-11-20T11:33:23;100635.16;;;1.05;100.00
25759;BME280;13604;52.496;13.456;2022-11-20T11:35:50;100629.25;;;1.37;100.00
25759;BME280;13604;52.496;13.456;2022-11-20T11:38:40;100626.81;;;1.65;100.00
25759;BME280;13604;52.496;13.456;2022-11-20T11:41:08;100623.81;;;1.49;100.00
25759;BME280;13604;52.496;13.456;2022-11-20T11:43:36;100613.88;;;1.35;100.00
25759;BME280;13604;52.496;13.456;2022-11-20T11:46:28;100623.88;;;1.46;100.00
25759;BME280;13604;52.496;13.456;2022-11-20T11:48:56;100623.56;;;1.24;100.00
25759;BME280;13604;52.496;13.456;2022-11-20T11:51:21;100625.56;;;1.13;100.00
25759;BME280;13604;52.496;13.456;2022-11-20T11:53:48;100615.00;;;0.90;100.00
25759;BME280;13604;52.496;13.456;2022-11-20T11:56:14;100623.78;;;0.80;100.00
25759;BME280;13604;52.496;13.456;2022-11-20T11:58:46;100618.81;;;0.73;100.00
25759;BME280;13604;52.496;13.456;2022-11-20T12:01:32;100607.75;;;0.71;100.00
25759;BME280;13604;52.496;13.456;2022-11-20T12:04:05;100614.31;;;0.83;100.00
25759;BME280;13604;52.496;13.456;2022-11-20T12:06:34;100605.94;;;0.77;100.00
25759;BME280;13604;52.496;13.456;2022-11-20T12:09:08;100607.19;;;0.59;100.00
25759;BME280;13604;52.496;13.456;2022-11-20T12:11:43;100608.78;;;0.64;100.00
25759;BME280;13604;52.496;13.456;2022-11-20T12:14:17;100607.94;;;0.64;100.00
25759;BME280;13604;52.496;13.456;2022-11-20T12:16:45;100599.25;;;0.69;100.00
25759;BME280;13604;52.496;13.456;2022-11-20T12:19:12;100603.63;;;0.66;100.00
25759;BME280;13604;52.496;13.456;2022-11-20T12:21:58;100592.31;;;0.75;100.00
25759;BME280;13604;52.496;13.456;2022-11-20T12:24:52;100603.47;;;0.72;100.00
25759;BME280;13604;52.496;13.456;2022-11-20T12:30:23;100593.41;;;1.00;100.00
25759;BME280;13604;52.496;13.456;2022-11-20T12:33:19;100588.13;;;1.06;100.00
25759;BME280;13604;52.496;13.456;2022-11-20T12:36:13;100588.63;;;1.20;100.00
25759;BME280;13604;52.496;13.456;2022-11-20T12:38:51;100591.94;;;1.24;100.00
25759;BME280;13604;52.496;13.456;2022-11-20T12:44:44;100581.66;;;1.25;100.00
25759;BME280;13604;52.496;13.456;2022-11-20T12:47:50;100576.25;;;1.36;100.00
25759;BME280;13604;52.496;13.456;2022-11-20T12:50:45;100574.16;;;1.50;100.00
25759;BME280;13604;52.496;13.456;2022-11-20T12:53:30;100568.16;;;1.51;100.00
25759;BME280;13604;52.496;13.456;2022-11-20T12:58:55;100574.19;;;1.49;100.00
25759;BME280;13604;52.496;13.456;2022-11-20T13:01:46;100567.34;;;1.49;100.00
25759;BME280;13604;52.496;13.456;2022-11-20T13:06:50;100568.03;;;1.23;100.00
25759;BME280;13604;52.496;13.456;2022-11-20T13:09:17;100561.41;;;1.15;100.00